sensor_id;sensor_type;location;lat;lon;timestamp;pressure;altitude;pressure_sealevel;temperature;humidity
37848;BME280;23688;33.130;-117.188;2023-04-01T00:01:02;100071.97;;;12.51;90.65
37848;BME280;23688;33.130;-117.188;2023-04-01T00:03:31;100081.84;;;12.58;91.45
37848;BME280;23688;33.130;-117.188;2023-04-01T00:06:01;100069.03;;;12.43;92.11
37848;BME280;23688;33.130;-117.188;2023-04-01T00:08:28;100078.50;;;12.41;92.98
37848;BME280;23688;33.130;-117.188;2023-04-01T00:10:55;100070.72;;;12.62;92.73
37848;BME280;23688;33.130;-117.188;2023-04-01T00:13:26;100071.41;;;12.58;92.80
37848;BME280;23688;33.130;-117.188;2023-04-01T00:15:54;100073.41;;;12.63;90.73
37848;BME280;23688;33.130;-117.188;2023-04-01T00:18:21;100057.47;;;12.56;91.12
37848;BME280;23688;33.130;-117.188;2023-04-01T00:20:49;100061.16;;;12.61;90.11
37848;BME280;23688;33.130;-117.188;2023-04-01T00:23:16;100070.28;;;12.51;91.63
37848;BME280;23688;33.130;-117.188;2023-04-01T00:25:44;100063.91;;;12.45;91.82
37848;BME280;23688;33.130;-117.188;2023-04-01T00:28:18;100053.66;;;12.28;90.92
37848;BME280;23688;33.130;-117.188;2023-04-01T00:30:45;100065.09;;;12.32;92.07
37848;BME280;23688;33.130;-117.188;2023-04-01T00:33:13;100065.91;;;12.31;92.69
37848;BME280;23688;33.130;-117.188;2023-04-01T00:35:39;100065.16;;;12.14;92.55
37848;BME280;23688;33.130;-117.188;2023-04-01T00:38:06;100048.75;;;12.15;93.76
37848;BME280;23688;33.130;-117.188;2023-04-01T00:40:42;100058.81;;;12.27;94.90
37848;BME280;23688;33.130;-117.188;2023-04-01T00:43:15;100061.56;;;12.10;93.00
37848;BME280;23688;33.130;-117.188;2023-04-01T00:45:47;100060.69;;;12.10;93.02
37848;BME280;23688;33.130;-117.188;2023-04-01T00:48:18;100055.69;;;11.95;94.86
37848;BME280;23688;33.130;-117.188;2023-04-01T00:51:13;100059.16;;;11.95;96.14
37848;BME280;23688;33.130;-117.188;2023-04-01T00:53:43;100053.44;;;11.85;96.96
37848;BME280;23688;33.130;-117.188;2023-04-01T00:56:17;100048.44;;;11.88;98.10
37848;BME280;23688;33.130;-117.188;2023-04-01T00:59:08;100058.75;;;12.06;99.54
37848;BME280;23688;33.130;-117.188;2023-04-01T01:01:37;100057.25;;;12.11;98.54
37848;BME280;23688;33.130;-117.188;2023-04-01T01:04:03;100055.81;;;11.98;97.16
37848;BME280;23688;33.130;-117.188;2023-04-01T01:12:14;100063.97;;;12.06;99.85
37848;BME280;23688;33.130;-117.188;2023-04-01T01:15:00;100053.00;;;11.93;100.00
37848;BME280;23688;33.130;-117.188;2023-04-01T01:20:24;100043.75;;;12.00;99.80
37848;BME280;23688;33.130;-117.188;2023-04-01T01:37:24;100037.69;;;12.40;97.36
37848;BME280;23688;33.130;-117.188;2023-04-01T01:40:00;100025.22;;;12.33;95.34
37848;BME280;23688;33.130;-117.188;2023-04-01T01:42:28;100028.34;;;12.45;94.92
37848;BME280;23688;33.130;-117.188;2023-04-01T01:44:57;100025.78;;;12.26;94.69
37848;BME280;23688;33.130;-117.188;2023-04-01T01:47:26;100028.59;;;12.11;95.51
37848;BME280;23688;33.130;-117.188;2023-04-01T01:49:58;100016.50;;;11.92;96.68
37848;BME280;23688;33.130;-117.188;2023-04-01T01:52:27;100017.38;;;11.92;97.02
37848;BME280;23688;33.130;-117.188;2023-04-01T01:54:56;100021.06;;;11.78;97.00
37848;BME280;23688;33.130;-117.188;2023-04-01T01:57:29;100017.63;;;11.79;97.54
37848;BME280;23688;33.130;-117.188;2023-04-01T02:00:08;100012.34;;;11.77;98.00
37848;BME280;23688;33.130;-117.188;2023-04-01T02:02:44;100008.41;;;11.86;97.94
37848;BME280;23688;33.130;-117.188;2023-04-01T02:05:18;100019.81;;;11.88;98.28
37848;BME280;23688;33.130;-117.188;2023-04-01T02:07:55;100021.50;;;11.87;98.57
37848;BME280;23688;33.130;-117.188;2023-04-01T02:10:25;100021.53;;;11.69;99.78
37848;BME280;23688;33.130;-117.188;2023-04-01T02:12:57;100015.25;;;11.84;99.35
37848;BME280;23688;33.130;-117.188;2023-04-01T02:15:27;100008.41;;;11.86;99.95
37848;BME280;23688;33.130;-117.188;2023-04-01T02:17:56;100004.63;;;11.79;99.75
37848;BME280;23688;33.130;-117.188;2023-04-01T02:20:24;100014.66;;;11.89;99.60
37848;BME280;23688;33.130;-117.188;2023-04-01T02:22:55;100001.72;;;11.91;99.50
37848;BME280;23688;33.130;-117.188;2023-04-01T02:25:33;100011.81;;;12.04;98.83
37848;BME280;23688;33.130;-117.188;2023-04-01T02:28:04;100017.19;;;12.07;99.00
37848;BME280;23688;33.130;-117.188;2023-04-01T02:30:34;100013.53;;;12.23;98.51
37848;BME280;23688;33.130;-117.188;2023-04-01T02:33:01;100009.91;;;12.19;97.66
37848;BME280;23688;33.130;-117.188;2023-04-01T02:35:28;100006.66;;;12.25;97.92
37848;BME280;23688;33.130;-117.188;2023-04-01T02:37:55;100004.19;;;12.28;97.72
37848;BME280;23688;33.130;-117.188;2023-04-01T02:40:22;99982.97;;;12.19;97.80
37848;BME280;23688;33.130;-117.188;2023-04-01T02:42:48;100003.09;;;12.23;97.18
37848;BME280;23688;33.130;-117.188;2023-04-01T02:45:15;99992.78;;;12.25;97.28
37848;BME280;23688;33.130;-117.188;2023-04-01T02:47:41;99985.84;;;12.25;97.25
37848;BME280;23688;33.130;-117.188;2023-04-01T02:50:09;99989.09;;;12.19;96.60
37848;BME280;23688;33.130;-117.188;2023-04-01T02:52:35;99985.75;;;12.24;96.40
37848;BME280;23688;33.130;-117.188;2023-04-01T02:55:03;99990.50;;;12.32;95.67
37848;BME280;23688;33.130;-117.188;2023-04-01T02:57:32;99979.19;;;12.32;95.23
37848;BME280;23688;33.130;-117.188;2023-04-01T02:59:58;99987.03;;;12.33;95.58
37848;BME280;23688;33.130;-117.188;2023-04-01T03:02:26;99980.72;;;12.27;96.22
37848;BME280;23688;33.130;-117.188;2023-04-01T03:04:52;99989.28;;;12.24;96.35
37848;BME280;23688;33.130;-117.188;2023-04-01T03:07:19;99987.03;;;12.12;96.76
37848;BME280;23688;33.130;-117.188;2023-04-01T03:09:45;99985.88;;;12.06;96.89
37848;BME280;23688;33.130;-117.188;2023-04-01T03:12:12;99984.66;;;11.97;97.28
37848;BME280;23688;33.130;-117.188;2023-04-01T03:14:38;99971.78;;;11.81;97.40
37848;BME280;23688;33.130;-117.188;2023-04-01T03:17:05;99986.41;;;11.79;98.00
37848;BME280;23688;33.130;-117.188;2023-04-01T03:19:32;99990.41;;;11.71;98.34
37848;BME280;23688;33.130;-117.188;2023-04-01T03:22:00;99990.31;;;11.69;98.87
37848;BME280;23688;33.130;-117.188;2023-04-01T03:24:26;99973.28;;;11.56;99.17
37848;BME280;23688;33.130;-117.188;2023-04-01T03:26:52;99990.66;;;11.57;99.43
37848;BME280;23688;33.130;-117.188;2023-04-01T03:29:19;99980.78;;;11.50;99.49
37848;BME280;23688;33.130;-117.188;2023-04-01T03:31:45;99992.69;;;11.45;99.62
37848;BME280;23688;33.130;-117.188;2023-04-01T03:34:11;99992.28;;;11.36;100.00
37848;BME280;23688;33.130;-117.188;2023-04-01T03:36:38;99984.44;;;11.34;100.00
37848;BME280;23688;33.130;-117.188;2023-04-01T03:39:04;99974.63;;;11.29;100.00
37848;BME280;23688;33.130;-117.188;2023-04-01T03:41:32;99988.66;;;11.32;100.00
37848;BME280;23688;33.130;-117.188;2023-04-01T03:43:58;99981.25;;;11.22;100.00
37848;BME280;23688;33.130;-117.188;2023-04-01T03:46:27;99993.63;;;11.28;100.00
37848;BME280;23688;33.130;-117.188;2023-04-01T03:48:53;99997.75;;;11.23;100.00
37848;BME280;23688;33.130;-117.188;2023-04-01T03:51:20;99991.44;;;11.18;100.00
37848;BME280;23688;33.130;-117.188;2023-04-01T03:53:46;100000.78;;;11.14;100.00
37848;BME280;23688;33.130;-117.188;2023-04-01T03:56:12;99993.59;;;11.08;100.00
37848;BME280;23688;33.130;-117.188;2023-04-01T03:58:39;99986.41;;;11.03;100.00
37848;BME280;23688;33.130;-117.188;2023-04-01T04:01:32;100001.03;;;11.01;100.00
37848;BME280;23688;33.130;-117.188;2023-04-01T04:03:58;100003.50;;;10.98;100.00
37848;BME280;23688;33.130;-117.188;2023-04-01T04:06:27;100007.72;;;10.96;100.00
37848;BME280;23688;33.130;-117.188;2023-04-01T04:08:54;100009.22;;;10.90;100.00
37848;BME280;23688;33.130;-117.188;2023-04-01T04:11:21;99994.00;;;10.80;100.00
37848;BME280;23688;33.130;-117.188;2023-04-01T04:13:48;99998.66;;;10.87;100.00
37848;BME280;23688;33.130;-117.188;2023-04-01T04:16:17;100003.47;;;10.80;100.00
37848;BME280;23688;33.130;-117.188;2023-04-01T04:18:44;99993.03;;;10.78;100.00
37848;BME280;23688;33.130;-117.188;2023-04-01T04:21:14;99999.13;;;10.79;100.00
37848;BME280;23688;33.130;-117.188;2023-04-01T04:23:42;100004.59;;;10.85;100.00
37848;BME280;23688;33.130;-117.188;2023-04-01T04:26:11;100009.03;;;10.87;100.00
37848;BME280;23688;33.130;-117.188;2023-04-01T04:28:38;100011.72;;;10.89;100.00
37848;BME280;23688;33.130;-117.188;2023-04-01T04:31:05;99999.34;;;10.83;100.00
37848;BME280;23688;33.130;-117.188;2023-04-01T04:33:33;100004.91;;;10.91;100.00
37848;BME280;23688;33.130;-117.188;2023-04-01T04:36:00;100004.03;;;10.90;100.00
37848;BME280;23688;33.130;-117.188;2023-04-01T04:38:27;100004.91;;;10.91;100.00
37848;BME280;23688;33.130;-117.188;2023-04-01T04:40:53;100005.78;;;10.91;100.00
37848;BME280;23688;33.130;-117.188;2023-04-01T04:43:21;100002.16;;;10.88;100.00
37848;BME280;23688;33.130;-117.188;2023-04-01T04:45:48;100003.78;;;10.86;100.00
37848;BME280;23688;33.130;-117.188;2023-04-01T04:48:15;100006.44;;;10.87;100.00
37848;BME280;23688;33.130;-117.188;2023-04-01T04:50:49;100000.00;;;10.79;100.00
37848;BME280;23688;33.130;-117.188;2023-04-01T04:53:17;100008.69;;;10.80;100.00
37848;BME280;23688;33.130;-117.188;2023-04-01T04:55:48;100022.13;;;10.71;100.00
37848;BME280;23688;33.130;-117.188;2023-04-01T04:58:15;100020.19;;;10.67;100.00
37848;BME280;23688;33.130;-117.188;2023-04-01T05:00:43;100011.94;;;10.58;100.00
37848;BME280;23688;33.130;-117.188;2023-04-01T05:03:11;100012.63;;;10.54;100.00
37848;BME280;23688;33.130;-117.188;2023-04-01T05:05:39;100006.22;;;10.47;100.00
37848;BME280;23688;33.130;-117.188;2023-04-01T05:08:06;99997.16;;;10.39;100.00
37848;BME280;23688;33.130;-117.188;2023-04-01T05:10:32;100013.78;;;10.42;100.00
37848;BME280;23688;33.130;-117.188;2023-04-01T05:12:58;100024.91;;;10.40;100.00
37848;BME280;23688;33.130;-117.188;2023-04-01T05:15:28;99998.47;;;10.31;100.00
37848;BME280;23688;33.130;-117.188;2023-04-01T05:17:57;100007.38;;;10.36;100.00
37848;BME280;23688;33.130;-117.188;2023-04-01T05:20:23;100017.94;;;10.39;100.00
37848;BME280;23688;33.130;-117.188;2023-04-01T05:22:56;100017.47;;;10.30;100.00
37848;BME280;23688;33.130;-117.188;2023-04-01T05:25:23;100017.69;;;10.18;100.00
37848;BME280;23688;33.130;-117.188;2023-04-01T05:27:49;100022.53;;;10.12;100.00
37848;BME280;23688;33.130;-117.188;2023-04-01T05:30:24;100025.09;;;10.10;100.00
37848;BME280;23688;33.130;-117.188;2023-04-01T05:32:53;100020.53;;;10.06;100.00
37848;BME280;23688;33.130;-117.188;2023-04-01T05:35:20;100021.66;;;10.11;100.00
37848;BME280;23688;33.130;-117.188;2023-04-01T05:37:46;100034.72;;;10.13;100.00
37848;BME280;23688;33.130;-117.188;2023-04-01T05:40:15;100028.03;;;10.00;100.00
37848;BME280;23688;33.130;-117.188;2023-04-01T05:42:41;100026.81;;;9.93;100.00
37848;BME280;23688;33.130;-117.188;2023-04-01T05:45:08;100033.50;;;9.90;100.00
37848;BME280;23688;33.130;-117.188;2023-04-01T05:47:34;100027.03;;;9.81;100.00
37848;BME280;23688;33.130;-117.188;2023-04-01T05:50:01;100029.63;;;9.81;100.00
37848;BME280;23688;33.130;-117.188;2023-04-01T05:52:27;100018.72;;;9.71;100.00
37848;BME280;23688;33.130;-117.188;2023-04-01T05:54:54;100017.16;;;9.74;100.00
37848;BME280;23688;33.130;-117.188;2023-04-01T05:57:22;100004.81;;;9.70;100.00
37848;BME280;23688;33.130;-117.188;2023-04-01T05:59:48;100009.63;;;9.62;100.00
37848;BME280;23688;33.130;-117.188;2023-04-01T06:02:17;100029.31;;;9.59;100.00
37848;BME280;23688;33.130;-117.188;2023-04-01T06:04:44;100024.00;;;9.41;100.00
37848;BME280;23688;33.130;-117.188;2023-04-01T06:07:12;100026.38;;;9.36;100.00
37848;BME280;23688;33.130;-117.188;2023-04-01T06:09:44;100023.34;;;9.29;100.00
37848;BME280;23688;33.130;-117.188;2023-04-01T06:15:31;100012.19;;;9.30;100.00
37848;BME280;23688;33.130;-117.188;2023-04-01T06:21:04;100024.41;;;9.32;100.00
37848;BME280;23688;33.130;-117.188;2023-04-01T06:27:03;100019.59;;;9.24;100.00
37848;BME280;23688;33.130;-117.188;2023-04-01T06:35:22;100020.47;;;9.08;100.00
37848;BME280;23688;33.130;-117.188;2023-04-01T06:46:58;100026.69;;;8.80;100.00
37848;BME280;23688;33.130;-117.188;2023-04-01T06:54:36;100022.31;;;8.79;100.00
37848;BME280;23688;33.130;-117.188;2023-04-01T06:57:27;99997.88;;;8.59;100.00
37848;BME280;23688;33.130;-117.188;2023-04-01T06:59:59;99999.41;;;8.55;100.00
37848;BME280;23688;33.130;-117.188;2023-04-01T07:02:41;100019.38;;;8.73;100.00
37848;BME280;23688;33.130;-117.188;2023-04-01T07:05:14;100014.91;;;8.70;100.00
37848;BME280;23688;33.130;-117.188;2023-04-01T07:07:53;100014.38;;;8.76;100.00
37848;BME280;23688;33.130;-117.188;2023-04-01T07:13:02;100016.72;;;8.71;100.00
37848;BME280;23688;33.130;-117.188;2023-04-01T07:15:46;99998.50;;;8.70;100.00
37848;BME280;23688;33.130;-117.188;2023-04-01T07:18:21;100029.38;;;8.82;100.00
37848;BME280;23688;33.130;-117.188;2023-04-01T07:20:51;100030.44;;;8.85;100.00
37848;BME280;23688;33.130;-117.188;2023-04-01T07:23:27;100019.28;;;8.86;100.00
37848;BME280;23688;33.130;-117.188;2023-04-01T07:26:17;100020.41;;;8.91;100.00
37848;BME280;23688;33.130;-117.188;2023-04-01T07:28:45;100015.25;;;8.91;100.00
37848;BME280;23688;33.130;-117.188;2023-04-01T07:34:23;100022.03;;;8.89;100.00
37848;BME280;23688;33.130;-117.188;2023-04-01T07:37:13;100021.41;;;8.93;100.00
37848;BME280;23688;33.130;-117.188;2023-04-01T07:40:09;100013.47;;;8.90;100.00
37848;BME280;23688;33.130;-117.188;2023-04-01T07:45:18;100009.56;;;8.67;100.00
37848;BME280;23688;33.130;-117.188;2023-04-01T07:53:57;100003.41;;;8.50;100.00
37848;BME280;23688;33.130;-117.188;2023-04-01T07:56:51;100011.72;;;8.60;100.00
37848;BME280;23688;33.130;-117.188;2023-04-01T08:11:02;100004.31;;;8.51;100.00
37848;BME280;23688;33.130;-117.188;2023-04-01T08:17:04;99995.84;;;8.53;100.00
37848;BME280;23688;33.130;-117.188;2023-04-01T08:19:46;99986.28;;;8.52;100.00
37848;BME280;23688;33.130;-117.188;2023-04-01T08:22:49;99985.50;;;8.53;100.00
37848;BME280;23688;33.130;-117.188;2023-04-01T08:25:21;99965.16;;;8.45;100.00
37848;BME280;23688;33.130;-117.188;2023-04-01T08:28:00;99978.78;;;8.57;100.00
37848;BME280;23688;33.130;-117.188;2023-04-01T08:30:41;99964.81;;;8.53;100.00
37848;BME280;23688;33.130;-117.188;2023-04-01T08:33:27;99972.06;;;8.61;100.00
37848;BME280;23688;33.130;-117.188;2023-04-01T08:44:21;99992.44;;;8.54;100.00
37848;BME280;23688;33.130;-117.188;2023-04-01T08:50:26;99982.91;;;8.53;100.00
37848;BME280;23688;33.130;-117.188;2023-04-01T08:52:35;99965.88;;;8.42;100.00
37848;BME280;23688;33.130;-117.188;2023-04-01T08:55:35;99967.63;;;8.43;100.00
37848;BME280;23688;33.130;-117.188;2023-04-01T08:58:51;99969.75;;;8.35;100.00
37848;BME280;23688;33.130;-117.188;2023-04-01T09:13:16;99970.38;;;8.31;100.00
37848;BME280;23688;33.130;-117.188;2023-04-01T09:21:39;99964.59;;;8.35;100.00
37848;BME280;23688;33.130;-117.188;2023-04-01T09:38:17;99945.44;;;8.32;100.00
37848;BME280;23688;33.130;-117.188;2023-04-01T09:44:01;99942.47;;;8.26;100.00
37848;BME280;23688;33.130;-117.188;2023-04-01T09:50:10;99935.16;;;8.19;100.00
37848;BME280;23688;33.130;-117.188;2023-04-01T09:58:15;99937.31;;;8.11;100.00
37848;BME280;23688;33.130;-117.188;2023-04-01T10:11:47;99931.53;;;8.00;100.00
37848;BME280;23688;33.130;-117.188;2023-04-01T10:22:25;99894.50;;;7.86;100.00
37848;BME280;23688;33.130;-117.188;2023-04-01T10:38:44;99899.56;;;7.70;100.00
37848;BME280;23688;33.130;-117.188;2023-04-01T10:55:25;99879.88;;;7.57;100.00
37848;BME280;23688;33.130;-117.188;2023-04-01T11:18:41;99903.50;;;7.20;100.00
37848;BME280;23688;33.130;-117.188;2023-04-01T11:21:50;99904.56;;;7.24;100.00
37848;BME280;23688;33.130;-117.188;2023-04-01T11:29:49;99904.13;;;7.31;100.00
37848;BME280;23688;33.130;-117.188;2023-04-01T11:49:07;99904.25;;;7.33;100.00
37848;BME280;23688;33.130;-117.188;2023-04-01T11:52:04;99911.81;;;7.29;100.00
37848;BME280;23688;33.130;-117.188;2023-04-01T11:55:10;99892.59;;;7.11;100.00
37848;BME280;23688;33.130;-117.188;2023-04-01T12:08:31;99899.50;;;6.97;100.00
37848;BME280;23688;33.130;-117.188;2023-04-01T12:24:49;99911.06;;;7.17;100.00
37848;BME280;23688;33.130;-117.188;2023-04-01T12:27:27;99893.50;;;7.12;100.00
37848;BME280;23688;33.130;-117.188;2023-04-01T12:33:04;99884.09;;;7.12;100.00
37848;BME280;23688;33.130;-117.188;2023-04-01T12:35:59;99905.72;;;7.29;100.00
37848;BME280;23688;33.130;-117.188;2023-04-01T12:49:27;99884.25;;;7.15;100.00
37848;BME280;23688;33.130;-117.188;2023-04-01T12:52:31;99885.03;;;7.14;100.00
37848;BME280;23688;33.130;-117.188;2023-04-01T13:00:56;99902.69;;;7.21;100.00
37848;BME280;23688;33.130;-117.188;2023-04-01T13:03:44;99910.06;;;7.15;100.00
37848;BME280;23688;33.130;-117.188;2023-04-01T13:09:11;99902.94;;;7.11;100.00
37848;BME280;23688;33.130;-117.188;2023-04-01T13:23:49;99909.00;;;7.55;100.00
37848;BME280;23688;33.130;-117.188;2023-04-01T13:29:14;99917.59;;;7.68;100.00
37848;BME280;23688;33.130;-117.188;2023-04-01T13:35:08;99922.56;;;7.65;100.00
37848;BME280;23688;33.130;-117.188;2023-04-01T13:43:34;99938.47;;;7.43;100.00
37848;BME280;23688;33.130;-117.188;2023-04-01T13:49:06;99937.56;;;7.43;100.00
37848;BME280;23688;33.130;-117.188;2023-04-01T13:57:28;99939.53;;;7.32;100.00
37848;BME280;23688;33.130;-117.188;2023-04-01T14:03:29;99936.66;;;7.27;100.00
37848;BME280;23688;33.130;-117.188;2023-04-01T14:06:05;99947.97;;;7.29;100.00
37848;BME280;23688;33.130;-117.188;2023-04-01T14:11:56;99953.75;;;7.25;100.00
37848;BME280;23688;33.130;-117.188;2023-04-01T14:14:56;99957.13;;;7.24;100.00
37848;BME280;23688;33.130;-117.188;2023-04-01T14:23:06;99962.47;;;7.27;100.00
37848;BME280;23688;33.130;-117.188;2023-04-01T14:31:41;99968.28;;;7.38;100.00
37848;BME280;23688;33.130;-117.188;2023-04-01T14:37:13;99981.06;;;7.50;100.00
37848;BME280;23688;33.130;-117.188;2023-04-01T14:40:20;99982.53;;;7.60;100.00
37848;BME280;23688;33.130;-117.188;2023-04-01T14:43:04;99985.06;;;7.73;100.00
37848;BME280;23688;33.130;-117.188;2023-04-01T14:45:52;99984.00;;;7.84;100.00
37848;BME280;23688;33.130;-117.188;2023-04-01T14:49:01;99987.50;;;8.00;100.00
37848;BME280;23688;33.130;-117.188;2023-04-01T14:51:32;99988.59;;;8.03;100.00
37848;BME280;23688;33.130;-117.188;2023-04-01T14:56:42;99999.91;;;8.05;100.00
37848;BME280;23688;33.130;-117.188;2023-04-01T14:59:28;99999.38;;;8.26;100.00
37848;BME280;23688;33.130;-117.188;2023-04-01T15:18:50;100035.00;;;9.20;100.00
37848;BME280;23688;33.130;-117.188;2023-04-01T15:24:29;100015.50;;;9.43;100.00
37848;BME280;23688;33.130;-117.188;2023-04-01T15:33:26;100034.25;;;9.87;100.00
37848;BME280;23688;33.130;-117.188;2023-04-01T15:36:15;100020.38;;;10.03;100.00
37848;BME280;23688;33.130;-117.188;2023-04-01T15:38:53;100023.16;;;10.24;100.00
37848;BME280;23688;33.130;-117.188;2023-04-01T15:44:02;100019.28;;;10.66;98.44
37848;BME280;23688;33.130;-117.188;2023-04-01T15:46:48;100016.78;;;10.86;97.17
37848;BME280;23688;33.130;-117.188;2023-04-01T15:49:44;100016.91;;;11.07;95.50
37848;BME280;23688;33.130;-117.188;2023-04-01T15:52:42;100027.97;;;11.21;95.47
37848;BME280;23688;33.130;-117.188;2023-04-01T15:55:26;100032.94;;;11.34;94.62
37848;BME280;23688;33.130;-117.188;2023-04-01T15:58:18;100020.63;;;11.49;94.93
37848;BME280;23688;33.130;-117.188;2023-04-01T16:01:12;100021.06;;;11.78;92.23
37848;BME280;23688;33.130;-117.188;2023-04-01T16:03:52;100023.69;;;11.97;91.88
37848;BME280;23688;33.130;-117.188;2023-04-01T16:11:46;100012.34;;;12.57;84.12
37848;BME280;23688;33.130;-117.188;2023-04-01T16:20:25;100003.50;;;13.18;80.23
37848;BME280;23688;33.130;-117.188;2023-04-01T16:29:07;100007.94;;;13.65;82.08
37848;BME280;23688;33.130;-117.188;2023-04-01T16:38:03;100002.94;;;13.72;74.56
37848;BME280;23688;33.130;-117.188;2023-04-01T16:43:20;100005.28;;;13.64;76.50
37848;BME280;23688;33.130;-117.188;2023-04-01T16:48:43;100007.22;;;14.18;74.27
37848;BME280;23688;33.130;-117.188;2023-04-01T16:51:20;100003.38;;;14.33;75.15
37848;BME280;23688;33.130;-117.188;2023-04-01T16:53:53;99998.91;;;14.53;72.67
37848;BME280;23688;33.130;-117.188;2023-04-01T16:56:39;100006.00;;;14.85;73.27
37848;BME280;23688;33.130;-117.188;2023-04-01T16:59:07;100002.31;;;15.05;69.99
37848;BME280;23688;33.130;-117.188;2023-04-01T17:04:48;99969.00;;;15.28;60.45
37848;BME280;23688;33.130;-117.188;2023-04-01T17:18:50;99992.72;;;15.06;60.38
37848;BME280;23688;33.130;-117.188;2023-04-01T17:24:36;100001.22;;;14.98;54.05
37848;BME280;23688;33.130;-117.188;2023-04-01T17:30:12;100002.53;;;15.13;52.21
37848;BME280;23688;33.130;-117.188;2023-04-01T17:33:15;99993.75;;;15.11;57.71
37848;BME280;23688;33.130;-117.188;2023-04-01T17:35:32;100001.59;;;15.39;63.99
37848;BME280;23688;33.130;-117.188;2023-04-01T17:41:04;99994.94;;;15.51;55.09
37848;BME280;23688;33.130;-117.188;2023-04-01T17:47:00;99999.84;;;15.99;61.69
37848;BME280;23688;33.130;-117.188;2023-04-01T18:03:06;99979.53;;;16.57;58.45
37848;BME280;23688;33.130;-117.188;2023-04-01T18:11:29;99987.28;;;16.87;48.53
37848;BME280;23688;33.130;-117.188;2023-04-01T18:17:25;99995.38;;;16.96;51.38
37848;BME280;23688;33.130;-117.188;2023-04-01T18:20:14;99986.84;;;17.06;53.46
37848;BME280;23688;33.130;-117.188;2023-04-01T18:22:55;99987.44;;;16.95;55.42
37848;BME280;23688;33.130;-117.188;2023-04-01T18:25:44;99976.97;;;16.95;56.98
37848;BME280;23688;33.130;-117.188;2023-04-01T18:30:54;99981.13;;;17.23;59.30
37848;BME280;23688;33.130;-117.188;2023-04-01T18:33:56;99982.16;;;17.31;55.03
37848;BME280;23688;33.130;-117.188;2023-04-01T18:39:23;99980.44;;;17.31;57.73
37848;BME280;23688;33.130;-117.188;2023-04-01T18:47:45;99978.16;;;17.07;59.57
37848;BME280;23688;33.130;-117.188;2023-04-01T18:50:29;99979.53;;;17.29;58.91
37848;BME280;23688;33.130;-117.188;2023-04-01T18:53:12;99978.63;;;17.29;54.55
37848;BME280;23688;33.130;-117.188;2023-04-01T18:55:52;99971.44;;;17.20;55.38
37848;BME280;23688;33.130;-117.188;2023-04-01T19:04:38;99966.84;;;17.11;62.34
37848;BME280;23688;33.130;-117.188;2023-04-01T19:07:42;99976.88;;;16.90;57.33
37848;BME280;23688;33.130;-117.188;2023-04-01T19:18:25;99951.75;;;17.00;56.38
37848;BME280;23688;33.130;-117.188;2023-04-01T19:21:05;99967.84;;;17.17;55.95
37848;BME280;23688;33.130;-117.188;2023-04-01T19:34:53;99967.72;;;17.10;57.39
37848;BME280;23688;33.130;-117.188;2023-04-01T19:37:43;99970.94;;;16.97;59.00
37848;BME280;23688;33.130;-117.188;2023-04-01T19:40:35;99969.97;;;16.94;67.84
37848;BME280;23688;33.130;-117.188;2023-04-01T19:46:29;99973.34;;;16.88;61.60
37848;BME280;23688;33.130;-117.188;2023-04-01T19:57:50;99971.59;;;17.28;63.86
37848;BME280;23688;33.130;-117.188;2023-04-01T20:00:05;99978.91;;;17.41;62.35
37848;BME280;23688;33.130;-117.188;2023-04-01T20:05:41;99969.69;;;17.62;63.54
37848;BME280;23688;33.130;-117.188;2023-04-01T20:08:26;99959.75;;;17.88;63.93
37848;BME280;23688;33.130;-117.188;2023-04-01T20:11:22;99956.38;;;17.52;62.16
37848;BME280;23688;33.130;-117.188;2023-04-01T20:14:13;99954.31;;;17.38;61.42
37848;BME280;23688;33.130;-117.188;2023-04-01T20:31:24;99933.72;;;17.58;59.19
37848;BME280;23688;33.130;-117.188;2023-04-01T20:47:22;99930.25;;;18.03;54.10
37848;BME280;23688;33.130;-117.188;2023-04-01T20:50:23;99923.06;;;17.94;54.81
37848;BME280;23688;33.130;-117.188;2023-04-01T20:53:11;99929.53;;;18.13;55.43
37848;BME280;23688;33.130;-117.188;2023-04-01T20:58:58;99927.50;;;17.96;58.02
37848;BME280;23688;33.130;-117.188;2023-04-01T21:07:20;99922.16;;;17.92;55.83
37848;BME280;23688;33.130;-117.188;2023-04-01T21:23:38;99911.75;;;18.50;53.83
37848;BME280;23688;33.130;-117.188;2023-04-01T21:29:22;99914.78;;;18.20;55.96
37848;BME280;23688;33.130;-117.188;2023-04-01T21:43:09;99919.72;;;17.57;63.94
37848;BME280;23688;33.130;-117.188;2023-04-01T21:46:08;99922.47;;;17.65;66.85
37848;BME280;23688;33.130;-117.188;2023-04-01T21:56:52;99918.00;;;17.59;67.57
37848;BME280;23688;33.130;-117.188;2023-04-01T22:02:03;99911.94;;;17.19;69.79
37848;BME280;23688;33.130;-117.188;2023-04-01T22:04:38;99908.91;;;17.43;73.49
37848;BME280;23688;33.130;-117.188;2023-04-01T22:09:48;99888.66;;;17.35;77.36
37848;BME280;23688;33.130;-117.188;2023-04-01T22:12:30;99890.78;;;17.54;68.14
37848;BME280;23688;33.130;-117.188;2023-04-01T22:18:14;99897.28;;;17.73;69.57
37848;BME280;23688;33.130;-117.188;2023-04-01T22:20:54;99894.47;;;17.64;67.06
37848;BME280;23688;33.130;-117.188;2023-04-01T22:26:34;99895.16;;;17.53;70.37
37848;BME280;23688;33.130;-117.188;2023-04-01T22:29:10;99900.41;;;17.53;67.07
37848;BME280;23688;33.130;-117.188;2023-04-01T22:31:57;99886.53;;;17.61;66.33
37848;BME280;23688;33.130;-117.188;2023-04-01T22:34:43;99882.91;;;17.55;67.11
37848;BME280;23688;33.130;-117.188;2023-04-01T22:42:57;99894.38;;;17.17;68.33